Monterey, CA

1:49 AM PDT on August 27, 2014 (GMT -0700)
Monterey Peninsula | Change Station
CLOSE
Current Station
Airport
Location: Monterey,
Elevation: 253 ft
Nearby Weather Stations

Elev 253 ft 36.59 °N, 121.84 °W | Updated 55 minutes ago

Clear
Clear
58 °F
Feels Like 58 °F
N
4
Wind Variable Wind from ESE

Today
High -- | Low -- °F
--% Chance of Precip.
Yesterday
High -- | Low -- °F
Precip. -- in
6:34 AM 7:42 PM
Waxing Crescent, 3% visible
Pressure 30.06 in
Visibility 10.0 miles
Clouds Clear
Dew Point 53 °F
Humidity 84%
Rainfall 0.00 in
Snow Depth Not available.
UV 0 out of 12
Pollen 6.80 out of 12
Air Quality Not available.
Flu Activity Not available.
METAR KMRY 270754Z AUTO 11003KT 10SM CLR 14/12 A3003 RMK AO2 SLP178 T01440117 402110139

More Conditions Fewer Conditions

Pressure 30.06 in
Visibility 10.0 miles
Clouds Clear
Dew Point 53 °F
Humidity 84%
Rainfall 0.00 in
Snow Depth Not available.
UV 0 out of 12
Pollen 6.80 out of 12
Air Quality Not available.
Flu Activity Not available.
METAR KMRY 270754Z AUTO 11003KT 10SM CLR 14/12 A3003 RMK AO2 SLP178 T01440117 402110139

More Conditions Fewer Conditions

10-Day Weather Forecast

Almanac

Astronomy

Aug. 27, 2014 Rise Set
Actual Time 6:34 AM PDT 7:42 PM PDT
Civil Twilight 6:08 AM PDT 8:09 PM PDT
Nautical Twilight 5:36 AM PDT 8:40 PM PDT
Astronomical Twilight 5:03 AM PDT 9:13 PM PDT
Moon 8:31 AM PDT 8:42 PM PDT
Length of Visible Light 14h 00m
Length of Day
13h 07m
Tomorrow will be 2m 11s shorter.
Waxing Crescent, 3% of the Moon is Illuminated
Today
Waxing Crescent
Sep 2
First Quarter
Sep 8
Full
Sep 15
Last Quarter
Sep 24
New

Today's Extremes

State Highs State Lows

Community

WunderPhotos

Upload Photos

1,747,657 photos uploaded!

Nearby

Snow Depth

Station Depth Elevation
Leavitt Lake 1 in 9400 ft
Sonora Pass 0 in 8800 ft
Leavitt Meadows 1 in 7200 ft
Blue Lakes 0 in 8000 ft
Ebbetts Pass 0 in 8700 ft

Earthquake Activity

City Distance Mag. Time & Date
Soledad, California 40 miles 2.6 12:15 PM PDT
2014-08-26
Napa, California 117 miles 2.5 10:56 AM PDT
2014-08-26
Napa, California 117 miles 3.0 6:45 AM PDT
2014-08-26
American Canyon, California 112 miles 2.8 6:12 AM PDT
2014-08-26
Minimum magnitude displayed is 2.5.

Coastal Water Temperatures

Place Temperature
Monterey, CA 64.0 °F
Redwood City, CA 73.0 °F

Nearby Weather Stations